Time;durP1;ratioP1;P1;durP2;ratioP2;P2;SDS_P1;SDS_P2;PMS_P1;PMS_P2;Temp;Humidity;BMP_temperature;BMP_pressure;BME280_temperature;BME280_humidity;BME280_pressure;Samples;Min_cycle;Max_cycle;Signal;HPM_P1;HPM_P2
2023/02/09 00:01:07;;;;;;;15.10;7.20;;;;;;;0.38;48.33;103170.26;107950;1289;21986;-60
2023/02/09 00:03:34;;;;;;;12.60;6.10;;;;;;;0.36;47.85;103170.26;107245;1289;1002524;-61
2023/02/09 00:06:00;;;;;;;13.10;7.00;;;;;;;0.29;47.57;103168.57;108014;1289;21987;-64
2023/02/09 00:08:26;;;;;;;13.70;7.10;;;;;;;0.24;47.81;103164.73;107984;1289;21987;-61
2023/02/09 00:10:52;;;;;;;16.80;7.50;;;;;;;-0.07;48.18;103164.48;107917;1289;21966;-60
2023/02/09 00:13:22;;;;;;;18.90;8.30;;;;;;;-0.23;48.27;103158.39;108048;1289;22033;-64
2023/02/09 00:15:52;;;;;;;17.90;7.50;;;;;;;-0.36;48.65;103159.57;107884;1289;23137;-64
2023/02/09 00:18:18;;;;;;;16.00;7.80;;;;;;;-0.41;48.52;103158.91;107873;1289;22005;-64
2023/02/09 00:20:44;;;;;;;13.80;6.50;;;;;;;-0.48;48.63;103158.39;107858;1289;22066;-64
2023/02/09 00:23:10;;;;;;;15.50;7.30;;;;;;;-0.54;48.85;103159.36;107929;1289;21989;-60
2023/02/09 00:25:38;;;;;;;16.60;6.90;;;;;;;-0.60;48.69;103156.80;107933;1289;21992;-63
2023/02/09 00:28:04;;;;;;;18.80;8.30;;;;;;;-0.50;48.27;103153.58;107967;1285;23647;-60
2023/02/09 00:30:30;;;;;;;16.20;8.00;;;;;;;-0.40;48.04;103151.96;107104;1289;1014946;-61
2023/02/09 00:32:56;;;;;;;20.20;9.10;;;;;;;-0.41;48.00;103148.93;107840;1289;22088;-64
2023/02/09 00:35:22;;;;;;;16.50;8.30;;;;;;;-0.46;48.04;103147.39;107895;1289;21993;-60
2023/02/09 00:37:47;;;;;;;20.10;7.80;;;;;;;-0.51;48.06;103146.67;107948;1288;21988;-60
2023/02/09 00:40:13;;;;;;;16.50;7.10;;;;;;;-0.49;47.88;103145.60;107818;1289;21997;-64
2023/02/09 00:42:39;;;;;;;14.40;6.70;;;;;;;-0.40;47.56;103142.80;107827;1289;21991;-61
2023/02/09 00:45:05;;;;;;;18.10;7.40;;;;;;;-0.44;47.91;103140.97;107869;1289;21992;-64
2023/02/09 00:47:31;;;;;;;18.10;7.80;;;;;;;-0.64;48.41;103142.70;108010;1289;22008;-61
2023/02/09 00:49:57;;;;;;;17.00;7.60;;;;;;;-0.81;48.66;103147.05;108011;1289;21990;-60
2023/02/09 00:52:23;;;;;;;18.10;7.60;;;;;;;-0.87;48.47;103153.48;107899;1289;21995;-61
2023/02/09 00:54:48;;;;;;;21.30;9.80;;;;;;;-0.90;48.57;103156.58;107258;1289;1002255;-62
2023/02/09 00:57:14;;;;;;;17.90;7.90;;;;;;;-0.91;48.45;103159.63;107150;1289;1002322;-61
2023/02/09 00:59:41;;;;;;;22.70;9.20;;;;;;;-0.91;48.45;103159.79;107947;1289;21997;-61
2023/02/09 01:02:07;;;;;;;20.30;8.70;;;;;;;-0.90;48.38;103162.21;107919;1289;21995;-64
2023/02/09 01:04:33;;;;;;;18.80;8.90;;;;;;;-0.74;47.75;103157.94;107957;1289;21990;-65
2023/02/09 01:06:59;;;;;;;20.70;8.40;;;;;;;-0.73;47.73;103158.72;107920;1289;22011;-65
2023/02/09 01:09:25;;;;;;;19.30;8.20;;;;;;;-0.79;47.63;103160.17;107894;1289;21992;-64
2023/02/09 01:11:52;;;;;;;19.40;8.40;;;;;;;-0.79;47.58;103153.11;107984;1289;22284;-64
2023/02/09 01:14:18;;;;;;;18.80;8.70;;;;;;;-0.81;47.36;103151.91;107903;1289;22044;-60
2023/02/09 01:16:44;;;;;;;17.40;8.20;;;;;;;-0.88;47.30;103150.35;107906;1289;22086;-60
2023/02/09 01:19:10;;;;;;;18.00;8.00;;;;;;;-0.92;47.27;103150.86;107948;1289;22046;-64
2023/02/09 01:21:36;;;;;;;17.40;7.10;;;;;;;-0.98;47.40;103147.45;107956;1289;22046;-65
2023/02/09 01:24:02;;;;;;;16.30;8.00;;;;;;;-1.03;47.25;103147.06;107948;1289;21997;-63
2023/02/09 01:26:30;;;;;;;16.60;7.10;;;;;;;-1.09;47.18;103142.85;107220;1289;1002526;-60
2023/02/09 01:28:56;;;;;;;17.90;7.90;;;;;;;-1.19;47.18;103146.16;107919;1289;21995;-63
2023/02/09 01:31:26;;;;;;;16.60;7.90;;;;;;;-1.30;47.24;103152.35;107939;1289;21992;-63
2023/02/09 01:33:53;;;;;;;25.00;9.50;;;;;;;-1.40;47.27;103150.21;107839;1289;21986;-64
2023/02/09 01:36:19;;;;;;;19.70;8.60;;;;;;;-1.51;47.33;103150.69;107940;1289;22001;-60
2023/02/09 01:38:45;;;;;;;21.70;10.10;;;;;;;-1.56;47.55;103151.30;107175;1289;1002692;-64
2023/02/09 01:41:11;;;;;;;25.20;10.90;;;;;;;-1.59;47.63;103151.05;107164;1289;1002952;-60
2023/02/09 01:44:16;;;;;;;19.90;9.10;;;;;;;-1.60;47.80;103150.75;107852;1289;21999;-64
2023/02/09 01:46:42;;;;;;;21.90;10.20;;;;;;;-1.59;47.84;103151.37;107789;1289;21995;-64
2023/02/09 01:49:11;;;;;;;29.30;11.50;;;;;;;-1.55;47.88;103151.17;107801;1289;21999;-63
2023/02/09 01:52:03;;;;;;;28.90;11.20;;;;;;;-1.53;47.85;103148.21;107145;1289;1002072;-60
2023/02/09 01:54:38;;;;;;;21.90;10.30;;;;;;;-1.54;47.79;103146.45;107130;1284;1002776;-63
2023/02/09 01:57:07;;;;;;;25.80;10.10;;;;;;;-1.60;47.99;103145.23;107125;1289;1003057;-64
2023/02/09 01:59:33;;;;;;;25.60;9.40;;;;;;;-1.55;47.92;103144.27;107875;1289;21987;-63
2023/02/09 02:01:59;;;;;;;27.30;11.00;;;;;;;-1.55;47.83;103141.02;107783;1289;22032;-61
2023/02/09 02:04:25;;;;;;;23.90;11.10;;;;;;;-1.58;47.85;103140.98;107792;1289;22001;-63
2023/02/09 02:06:53;;;;;;;23.30;9.90;;;;;;;-1.62;47.74;103136.36;107798;1289;21990;-60
2023/02/09 02:09:19;;;;;;;22.40;10.50;;;;;;;-1.64;47.78;103131.71;107878;1289;21992;-64
2023/02/09 02:11:46;;;;;;;23.70;9.80;;;;;;;-1.66;47.91;103133.59;107889;1289;21995;-61
2023/02/09 02:14:35;;;;;;;24.30;9.50;;;;;;;-1.72;47.80;103135.50;107162;1289;1003020;-60
2023/02/09 02:17:35;;;;;;;23.70;9.90;;;;;;;-1.80;48.07;103134.73;107805;1289;21989;-60
2023/02/09 02:20:20;;;;;;;32.10;12.60;;;;;;;-1.78;48.15;103134.49;107829;1289;21994;-60
2023/02/09 02:22:51;;;;;;;28.70;11.90;;;;;;;-1.78;48.22;103137.30;107800;1289;22030;-63
2023/02/09 02:25:50;;;;;;;21.90;9.40;;;;;;;-1.80;48.28;103137.75;107838;1289;21990;-63
2023/02/09 02:28:34;;;;;;;28.70;11.80;;;;;;;-2.02;48.51;103140.58;107855;1289;21988;-60
2023/02/09 02:31:37;;;;;;;24.50;10.70;;;;;;;-1.91;48.58;103141.86;107121;1289;1002381;-60
2023/02/09 02:34:08;;;;;;;24.60;10.20;;;;;;;-1.76;48.25;103140.88;107897;1287;21993;-63
2023/02/09 02:36:46;;;;;;;23.30;10.40;;;;;;;-1.72;48.25;103139.44;107841;1289;21995;-61
2023/02/09 02:39:32;;;;;;;26.50;10.60;;;;;;;-1.70;48.25;103138.09;107903;1289;22027;-60
2023/02/09 02:44:55;;;;;;;30.10;12.10;;;;;;;-1.73;48.13;103130.29;107897;1289;22000;-63
2023/02/09 02:47:23;;;;;;;25.60;10.30;;;;;;;-1.67;48.01;103134.20;107901;1289;21990;-60
2023/02/09 02:49:52;;;;;;;31.90;12.20;;;;;;;-1.71;48.04;103136.30;107924;1289;21991;-64
2023/02/09 02:52:17;;;;;;;32.80;14.80;;;;;;;-1.80;48.12;103132.12;107986;1289;22041;-64
2023/02/09 02:55:05;;;;;;;26.90;11.20;;;;;;;-1.84;47.94;103126.80;107909;1289;22001;-60
2023/02/09 02:57:31;;;;;;;28.30;10.80;;;;;;;-1.87;48.03;103124.65;108028;1289;22000;-60
2023/02/09 03:00:03;;;;;;;24.90;10.90;;;;;;;-1.88;48.15;103122.69;108009;1289;22002;-64
2023/02/09 03:02:32;;;;;;;25.90;10.10;;;;;;;-1.89;48.24;103124.50;107857;1289;21997;-64
2023/02/09 03:04:58;;;;;;;23.40;10.00;;;;;;;-1.91;48.02;103125.20;107876;1289;22008;-61
2023/02/09 03:07:24;;;;;;;18.80;9.20;;;;;;;-1.91;48.25;103120.16;107884;1289;21996;-65
2023/02/09 03:09:52;;;;;;;22.30;10.20;;;;;;;-1.88;48.51;103122.01;107981;1289;22012;-64
2023/02/09 03:12:33;;;;;;;18.90;9.30;;;;;;;-1.82;48.66;103119.95;107952;1289;22030;-64
2023/02/09 03:15:23;;;;;;;23.10;9.90;;;;;;;-1.77;48.60;103115.80;107982;1289;22009;-62
2023/02/09 03:18:07;;;;;;;;;;;;;;;-1.74;48.48;103111.02;107940;1289;22089;-64
2023/02/09 03:20:50;;;;;;;22.70;9.90;;;;;;;-1.74;48.56;103108.98;107063;1289;1003150;-60
2023/02/09 03:23:25;;;;;;;19.20;9.20;;;;;;;-1.75;48.41;103109.75;107197;1289;1002611;-64
2023/02/09 03:25:51;;;;;;;20.10;9.80;;;;;;;-1.77;48.34;103112.36;107890;1289;22029;-63
2023/02/09 03:28:22;;;;;;;26.00;10.50;;;;;;;-1.78;48.21;103115.04;107776;1289;22001;-64
2023/02/09 03:30:48;;;;;;;23.60;10.40;;;;;;;-1.82;48.07;103115.58;107868;1289;22000;-63
2023/02/09 03:33:19;;;;;;;24.40;10.70;;;;;;;-1.88;47.91;103115.45;107952;1289;22009;-61
2023/02/09 03:35:50;;;;;;;29.30;11.20;;;;;;;-1.93;47.86;103115.17;107277;1289;1002470;-60
2023/02/09 03:38:16;;;;;;;20.40;9.70;;;;;;;-2.00;47.85;103112.59;107874;1289;21991;-60
2023/02/09 03:40:42;;;;;;;22.90;10.00;;;;;;;-2.03;48.04;103113.84;107831;1289;21989;-64
2023/02/09 03:43:10;;;;;;;19.30;9.60;;;;;;;-2.09;47.75;103111.83;107045;1289;1002983;-60
2023/02/09 03:45:36;;;;;;;21.60;10.10;;;;;;;-2.14;47.99;103113.17;107857;1289;21997;-60
2023/02/09 03:48:04;;;;;;;22.40;10.00;;;;;;;-2.13;47.93;103113.60;107862;1289;21990;-61
2023/02/09 03:50:31;;;;;;;20.70;9.40;;;;;;;-2.14;48.05;103117.23;107986;1289;21995;-61
2023/02/09 03:52:58;;;;;;;24.60;10.70;;;;;;;-2.18;47.83;103122.74;107902;1289;21995;-61
2023/02/09 03:55:24;;;;;;;22.70;8.50;;;;;;;-2.24;47.80;103122.48;107219;1289;1002914;-63
2023/02/09 03:57:50;;;;;;;20.00;8.80;;;;;;;-2.28;47.88;103120.21;107997;1289;23141;-64
2023/02/09 04:00:16;;;;;;;25.80;9.30;;;;;;;-2.29;48.03;103117.80;107939;1289;22023;-63
2023/02/09 04:02:42;;;;;;;19.90;8.40;;;;;;;-2.26;47.93;103122.95;107981;1290;21997;-61
2023/02/09 04:05:08;;;;;;;22.70;9.70;;;;;;;-2.29;48.00;103126.86;108012;1290;21997;-60
2023/02/09 04:07:40;;;;;;;22.60;9.60;;;;;;;-2.33;47.92;103128.11;107972;1290;21999;-64
2023/02/09 04:10:07;;;;;;;16.20;8.40;;;;;;;-2.36;47.91;103135.20;107936;1290;23616;-64
2023/02/09 04:12:33;;;;;;;23.60;10.10;;;;;;;-2.37;47.91;103133.55;108121;1288;22159;-64
2023/02/09 04:14:59;;;;;;;23.40;9.70;;;;;;;-2.40;47.89;103132.17;108118;1285;22002;-60
2023/02/09 04:17:25;;;;;;;23.70;11.20;;;;;;;-2.42;47.81;103135.27;108120;1288;22042;-63
2023/02/09 04:19:51;;;;;;;21.00;9.60;;;;;;;-2.45;47.89;103135.11;108136;1288;21992;-60
2023/02/09 04:22:17;;;;;;;24.00;10.10;;;;;;;-2.46;47.96;103132.47;108065;1285;21991;-64
2023/02/09 04:24:42;;;;;;;23.40;10.60;;;;;;;-2.46;47.91;103134.55;108099;1288;21997;-63
2023/02/09 04:27:09;;;;;;;24.30;9.60;;;;;;;-2.47;47.99;103133.45;108063;1287;21996;-64
2023/02/09 04:29:35;;;;;;;22.00;9.90;;;;;;;-2.48;47.93;103136.25;108040;1287;21996;-61
2023/02/09 04:32:01;;;;;;;22.00;9.70;;;;;;;-2.47;47.91;103133.41;108040;1287;21999;-64
2023/02/09 04:34:27;;;;;;;24.40;10.90;;;;;;;-2.47;48.03;103140.45;108049;1287;21989;-64
2023/02/09 04:36:55;;;;;;;23.30;10.40;;;;;;;-2.49;48.04;103145.64;108102;1287;22136;-60
2023/02/09 04:39:20;;;;;;;22.80;9.60;;;;;;;-2.50;47.94;103147.80;108040;1287;22455;-64
2023/02/09 04:41:46;;;;;;;19.40;9.10;;;;;;;-2.47;48.19;103146.34;108035;1287;21989;-62
2023/02/09 04:44:12;;;;;;;21.60;9.40;;;;;;;-2.41;48.47;103143.06;108131;1287;21989;-61
2023/02/09 04:46:38;;;;;;;23.00;9.70;;;;;;;-2.34;48.39;103141.98;108083;1287;21986;-64
2023/02/09 04:49:04;;;;;;;19.00;8.80;;;;;;;-2.31;48.26;103140.48;107516;1287;1002552;-61
2023/02/09 04:51:29;;;;;;;18.90;9.30;;;;;;;-2.29;48.23;103142.32;108215;1287;22013;-62
2023/02/09 04:53:55;;;;;;;17.00;7.90;;;;;;;-2.31;48.00;103141.83;108070;1287;21990;-61
2023/02/09 04:56:20;;;;;;;23.90;9.70;;;;;;;-2.39;47.81;103141.55;108044;1287;21984;-64
2023/02/09 05:01:32;;;;;;;19.30;8.70;;;;;;;-2.47;47.96;103146.83;108209;1287;24433;-62
2023/02/09 05:03:58;;;;;;;21.40;9.00;;;;;;;-2.45;48.21;103146.13;107988;1286;21999;-62
2023/02/09 05:06:26;;;;;;;33.90;11.90;;;;;;;-2.44;48.06;103148.27;107326;1287;1003712;-66
2023/02/09 05:08:51;;;;;;;28.70;15.00;;;;;;;-2.47;48.06;103150.46;108086;1287;21994;-66
2023/02/09 05:11:17;;;;;;;23.80;12.10;;;;;;;-2.50;48.30;103153.17;107364;1287;1002847;-62
2023/02/09 05:13:43;;;;;;;29.50;12.20;;;;;;;-2.51;48.46;103154.98;107360;1287;1002443;-62
2023/02/09 05:16:13;;;;;;;29.70;12.10;;;;;;;-2.45;48.68;103154.62;107367;1287;1003134;-62
2023/02/09 05:18:39;;;;;;;24.10;10.10;;;;;;;-2.40;48.48;103154.48;108160;1287;21990;-63
2023/02/09 05:21:05;;;;;;;28.80;12.40;;;;;;;-2.38;48.58;103159.45;108192;1287;21993;-62
2023/02/09 05:23:31;;;;;;;24.10;9.70;;;;;;;-2.33;48.67;103156.98;108276;1287;22003;-62
2023/02/09 05:25:57;;;;;;;29.20;11.10;;;;;;;-2.23;48.92;103160.75;108112;1287;21991;-62
2023/02/09 05:28:23;;;;;;;28.30;11.10;;;;;;;-2.15;48.91;103161.42;108193;1287;21994;-62
2023/02/09 05:30:52;;;;;;;32.40;10.10;;;;;;;-2.12;48.79;103167.02;108276;1287;22000;-63
2023/02/09 05:33:23;;;;;;;35.70;13.60;;;;;;;-2.08;48.60;103164.38;108227;1287;22041;-62
2023/02/09 05:35:50;;;;;;;26.70;10.80;;;;;;;-2.09;48.55;103165.73;108236;1283;21995;-62
2023/02/09 05:38:16;;;;;;;44.50;14.80;;;;;;;-2.09;48.45;103168.77;108230;1287;22027;-61
2023/02/09 05:40:41;;;;;;;37.40;14.50;;;;;;;-2.08;48.41;103173.64;108149;1287;21997;-61
2023/02/09 05:43:07;;;;;;;49.00;16.40;;;;;;;-2.07;48.48;103177.20;108092;1287;21987;-61
2023/02/09 05:45:33;;;;;;;42.10;16.30;;;;;;;-2.07;48.51;103179.60;108093;1287;22001;-61
2023/02/09 05:47:58;;;;;;;35.70;13.50;;;;;;;-2.04;48.61;103181.75;108110;1287;22114;-63
2023/02/09 05:50:24;;;;;;;48.00;16.50;;;;;;;-1.99;48.63;103187.02;109082;1287;22039;-61
2023/02/09 05:52:51;;;;;;;50.60;17.60;;;;;;;-1.94;48.68;103191.73;107280;1287;1002812;-62
2023/02/09 05:55:17;;;;;;;39.00;15.40;;;;;;;-1.93;48.66;103193.67;108108;1287;21989;-61
2023/02/09 05:57:43;;;;;;;30.50;13.70;;;;;;;-1.92;48.80;103193.98;108127;1287;21992;-61
2023/02/09 06:00:10;;;;;;;37.80;14.30;;;;;;;-1.87;48.83;103194.39;108118;1287;22013;-63
2023/02/09 06:02:36;;;;;;;26.20;12.00;;;;;;;-1.77;49.34;103194.83;108139;1287;21985;-64
2023/02/09 06:05:02;;;;;;;26.90;12.00;;;;;;;-1.62;49.83;103192.78;108106;1287;21988;-67
2023/02/09 06:07:28;;;;;;;29.60;14.10;;;;;;;-1.46;49.89;103192.08;107360;1287;1003010;-61
2023/02/09 06:09:54;;;;;;;33.20;15.20;;;;;;;-1.42;49.05;103191.83;107455;1287;1002614;-62
2023/02/09 06:12:20;;;;;;;30.90;16.10;;;;;;;-1.45;48.97;103187.32;108050;1287;21992;-66
2023/02/09 06:14:46;;;;;;;27.90;12.60;;;;;;;-1.47;49.04;103187.47;107363;1287;1002292;-61
2023/02/09 06:17:15;;;;;;;25.30;12.20;;;;;;;-1.47;49.09;103189.90;107404;1287;1002943;-66
2023/02/09 06:19:40;;;;;;;25.40;10.50;;;;;;;-1.47;49.23;103192.15;107314;1287;1002109;-66
2023/02/09 06:22:06;;;;;;;19.90;9.50;;;;;;;-1.42;49.15;103193.40;108048;1287;21995;-62
2023/02/09 06:24:32;;;;;;;23.10;11.40;;;;;;;-1.38;49.27;103193.77;108115;1284;22032;-61
2023/02/09 06:26:58;;;;;;;22.80;11.70;;;;;;;-1.33;49.25;103196.20;108120;1287;21996;-66
2023/02/09 06:29:25;;;;;;;26.70;11.70;;;;;;;-1.29;49.43;103194.67;107331;1287;1002794;-65
2023/02/09 06:31:51;;;;;;;29.70;12.10;;;;;;;-1.25;49.29;103197.52;108137;1287;21987;-61
2023/02/09 06:34:17;;;;;;;26.80;13.10;;;;;;;-1.18;49.31;103196.73;108179;1287;21989;-60
2023/02/09 06:36:44;;;;;;;27.80;13.30;;;;;;;-1.11;49.70;103197.64;108260;1287;21994;-66
2023/02/09 06:39:11;;;;;;;20.20;11.20;;;;;;;-1.07;49.54;103198.30;107963;1287;314493;-66
2023/02/09 06:41:43;;;;;;;21.70;10.70;;;;;;;-0.99;49.81;103197.23;107442;1287;1002612;-61
2023/02/09 06:44:08;;;;;;;24.70;11.00;;;;;;;-0.91;50.14;103202.02;107367;1287;1003029;-61
2023/02/09 06:46:34;;;;;;;25.10;11.20;;;;;;;-0.82;49.71;103198.55;107357;1287;1002387;-67
2023/02/09 06:49:00;;;;;;;22.20;10.70;;;;;;;-0.71;50.13;103192.15;107356;1287;1002604;-64
2023/02/09 06:51:26;;;;;;;24.50;11.60;;;;;;;-0.61;50.14;103191.36;108217;1287;22001;-67
2023/02/09 06:53:52;;;;;;;21.80;10.80;;;;;;;-0.51;50.26;103189.73;108146;1287;21998;-66
2023/02/09 06:56:19;;;;;;;24.70;12.00;;;;;;;-0.42;50.35;103186.52;108077;1287;21992;-67
2023/02/09 06:58:44;;;;;;;24.40;13.00;;;;;;;-0.37;49.90;103192.38;107431;1287;1002452;-62
2023/02/09 07:01:11;;;;;;;22.30;11.20;;;;;;;-0.31;50.05;103192.16;108065;1287;22451;-67
2023/02/09 07:03:38;;;;;;;22.50;11.60;;;;;;;-0.23;49.95;103196.05;108212;1287;21992;-67
2023/02/09 07:06:15;;;;;;;27.40;12.00;;;;;;;-0.13;50.06;103193.73;108232;1287;21988;-67
2023/02/09 07:08:42;;;;;;;22.30;11.00;;;;;;;-0.03;50.13;103191.02;108223;1287;21995;-61
2023/02/09 07:11:10;;;;;;;25.70;11.90;;;;;;;0.10;50.32;103193.86;107406;1287;1002595;-66
2023/02/09 07:13:36;;;;;;;30.80;12.90;;;;;;;0.20;50.40;103194.16;107487;1287;1002925;-61
2023/02/09 07:16:04;;;;;;;20.70;9.50;;;;;;;0.33;50.86;103191.27;108147;1287;21976;-67
2023/02/09 07:18:34;;;;;;;21.90;10.80;;;;;;;0.48;51.00;103189.80;108177;1287;23590;-61
2023/02/09 07:21:05;;;;;;;28.10;11.80;;;;;;;0.68;50.70;103187.83;107355;1287;1003166;-66
2023/02/09 07:23:31;;;;;;;26.10;12.50;;;;;;;0.84;50.43;103187.62;107468;1287;1002203;-67
2023/02/09 07:26:07;;;;;;;20.80;11.30;;;;;;;0.96;50.45;103191.70;107355;1287;1002303;-62
2023/02/09 07:28:34;;;;;;;21.30;10.50;;;;;;;1.09;50.35;103196.84;108172;1287;23137;-61
2023/02/09 07:31:05;;;;;;;24.20;11.00;;;;;;;1.15;50.29;103196.05;108207;1287;21999;-62
2023/02/09 07:33:33;;;;;;;22.20;11.30;;;;;;;1.26;50.92;103195.64;108272;1287;21994;-62
2023/02/09 07:35:59;;;;;;;19.50;10.60;;;;;;;1.48;51.73;103195.41;108118;1287;22022;-68
2023/02/09 07:38:25;;;;;;;25.00;11.10;;;;;;;1.75;51.95;103192.74;107409;1287;1002535;-63
2023/02/09 07:40:50;;;;;;;24.10;11.90;;;;;;;1.99;51.66;103199.90;108177;1287;22000;-67
2023/02/09 07:43:16;;;;;;;21.80;10.30;;;;;;;2.06;51.32;103199.20;108139;1287;21959;-63
2023/02/09 07:45:42;;;;;;;22.40;11.50;;;;;;;2.15;51.55;103191.98;107525;1287;1002714;-62
2023/02/09 07:48:09;;;;;;;21.30;11.00;;;;;;;2.30;51.77;103191.23;108211;1287;21988;-63
2023/02/09 07:50:35;;;;;;;22.90;12.00;;;;;;;2.46;52.10;103187.66;107922;1287;21992;-62
2023/02/09 07:53:00;;;;;;;19.50;11.30;;;;;;;2.63;52.03;103192.23;108155;1287;21997;-67
2023/02/09 07:55:26;;;;;;;24.90;12.60;;;;;;;2.75;51.67;103190.95;108117;1287;21994;-62
2023/02/09 07:57:52;;;;;;;21.30;12.40;;;;;;;2.80;51.01;103189.36;108203;1287;21995;-62
2023/02/09 08:00:19;;;;;;;25.20;12.30;;;;;;;2.90;51.08;103189.61;107400;1287;1002628;-67
2023/02/09 08:02:44;;;;;;;23.40;11.80;;;;;;;2.97;50.60;103186.59;108215;1287;21972;-63
2023/02/09 08:05:17;;;;;;;24.20;11.60;;;;;;;2.94;50.30;103179.50;108173;1287;21978;-63
2023/02/09 08:07:44;;;;;;;23.50;11.10;;;;;;;2.99;51.00;103183.61;108181;1287;23229;-68
2023/02/09 08:10:10;;;;;;;21.10;11.30;;;;;;;3.17;51.36;103181.63;108141;1287;21994;-68
2023/02/09 08:15:20;;;;;;;20.00;10.50;;;;;;;3.52;51.09;103172.30;107400;1287;1002717;-67
2023/02/09 08:17:48;;;;;;;21.20;10.60;;;;;;;3.61;50.94;103172.16;107483;1287;1002462;-68
2023/02/09 08:20:15;;;;;;;18.60;9.80;;;;;;;3.70;50.64;103171.69;107487;1287;1003219;-67
2023/02/09 08:22:44;;;;;;;20.30;10.10;;;;;;;3.86;50.89;103169.16;108181;1287;22088;-64
2023/02/09 08:25:11;;;;;;;21.40;9.60;;;;;;;4.03;51.25;103167.39;108263;1287;21986;-68
2023/02/09 08:27:38;;;;;;;20.40;10.20;;;;;;;4.24;51.25;103167.04;108143;1287;21978;-63
2023/02/09 08:30:04;;;;;;;17.20;10.30;;;;;;;4.45;51.03;103163.21;108133;1287;22046;-63
2023/02/09 08:32:35;;;;;;;16.00;9.10;;;;;;;4.61;51.06;103159.95;108135;1287;21989;-61
2023/02/09 08:35:01;;;;;;;20.60;10.60;;;;;;;4.85;51.73;103159.38;107332;1287;1002939;-65
2023/02/09 08:37:27;;;;;;;18.80;10.80;;;;;;;5.05;51.86;103157.86;107356;1287;1002922;-67
2023/02/09 08:39:53;;;;;;;22.40;11.40;;;;;;;5.16;50.60;103155.49;107375;1287;1002457;-61
2023/02/09 08:42:18;;;;;;;22.40;10.80;;;;;;;5.22;50.85;103153.72;108122;1287;22004;-62
2023/02/09 08:44:44;;;;;;;21.70;11.20;;;;;;;5.34;50.95;103154.91;107411;1287;1002129;-61
2023/02/09 08:47:10;;;;;;;20.00;10.20;;;;;;;5.52;50.81;103161.59;108106;1287;22476;-62
2023/02/09 08:49:36;;;;;;;19.00;9.80;;;;;;;5.69;50.80;103160.41;108102;1287;21999;-61
2023/02/09 08:52:02;;;;;;;17.80;9.30;;;;;;;5.85;50.46;103159.30;108116;1287;22009;-61
2023/02/09 08:54:28;;;;;;;18.40;9.50;;;;;;;6.01;50.80;103158.02;108116;1280;22026;-66
2023/02/09 08:56:53;;;;;;;15.80;9.20;;;;;;;6.16;50.24;103161.24;107360;1287;1002599;-66
2023/02/09 08:59:20;;;;;;;18.70;9.80;;;;;;;6.18;50.16;103166.42;107385;1287;1003083;-62
2023/02/09 09:01:46;;;;;;;16.10;9.10;;;;;;;6.29;50.08;103164.67;108169;1287;22008;-62
2023/02/09 09:04:12;;;;;;;17.30;9.70;;;;;;;6.47;50.64;103161.73;108316;1287;23768;-68
2023/02/09 09:06:38;;;;;;;18.80;10.10;;;;;;;6.77;50.76;103162.63;108246;1287;21954;-62
2023/02/09 09:09:04;;;;;;;17.40;9.40;;;;;;;6.95;49.43;103159.68;108197;1287;21994;-66
2023/02/09 09:11:30;;;;;;;17.90;9.60;;;;;;;7.06;50.01;103150.44;108116;1287;22083;-62
2023/02/09 09:13:56;;;;;;;18.00;9.60;;;;;;;7.30;50.05;103138.60;107446;1287;1002683;-62
2023/02/09 09:16:23;;;;;;;15.50;8.80;;;;;;;7.54;50.27;103131.10;108214;1287;21994;-61
2023/02/09 09:18:50;;;;;;;17.60;9.10;;;;;;;7.76;50.15;103121.73;108112;1287;22044;-65
2023/02/09 09:21:16;;;;;;;15.80;8.90;;;;;;;7.94;49.63;103118.14;108125;1287;21999;-62
2023/02/09 09:23:43;;;;;;;13.50;7.70;;;;;;;8.01;48.78;103112.81;108205;1287;21977;-62
2023/02/09 09:26:09;;;;;;;13.00;7.90;;;;;;;8.09;49.25;103109.29;108165;1287;22321;-62
2023/02/09 09:28:36;;;;;;;16.10;7.90;;;;;;;8.28;49.73;103104.83;108138;1287;22739;-63
2023/02/09 09:31:09;;;;;;;13.70;8.40;;;;;;;8.47;49.26;103097.02;108230;1287;23660;-66
2023/02/09 09:33:34;;;;;;;13.40;7.80;;;;;;;8.55;48.69;103089.48;108228;1287;22010;-62
2023/02/09 09:36:04;;;;;;;15.30;8.60;;;;;;;8.59;48.00;103084.23;108194;1287;21996;-66
2023/02/09 09:38:34;;;;;;;13.00;7.90;;;;;;;8.64;48.14;103076.18;107456;1287;1003411;-61
2023/02/09 09:41:00;;;;;;;14.10;8.30;;;;;;;8.80;48.63;103073.48;108139;1287;21991;-66
2023/02/09 09:43:30;;;;;;;13.40;7.50;;;;;;;8.98;48.60;103072.08;108107;1287;21989;-67
2023/02/09 09:45:56;;;;;;;14.00;8.00;;;;;;;9.16;48.14;103066.59;108216;1287;21988;-67
2023/02/09 09:48:44;;;;;;;11.70;7.00;;;;;;;9.22;47.55;103064.36;107453;1287;1002533;-64
2023/02/09 09:51:15;;;;;;;13.50;8.00;;;;;;;9.29;47.91;103064.08;108173;1287;21997;-66
2023/02/09 09:53:41;;;;;;;14.50;8.10;;;;;;;9.43;47.88;103060.38;107366;1287;1002599;-61
2023/02/09 09:56:07;;;;;;;17.40;8.20;;;;;;;9.64;46.72;103060.05;107394;1286;1003166;-62
2023/02/09 09:58:34;;;;;;;14.50;7.90;;;;;;;9.63;47.51;103061.23;107944;1287;22001;-66
2023/02/09 10:00:59;;;;;;;12.90;7.90;;;;;;;9.66;47.66;103058.34;108223;1287;24405;-66
2023/02/09 10:03:25;;;;;;;13.10;7.70;;;;;;;9.77;47.44;103053.45;108136;1287;21998;-64
2023/02/09 10:05:54;;;;;;;12.40;7.10;;;;;;;9.88;47.47;103043.48;108259;1287;22000;-69
2023/02/09 10:08:28;;;;;;;14.40;7.90;;;;;;;10.01;47.65;103037.25;107407;1287;1002621;-67
2023/02/09 10:11:01;;;;;;;14.80;8.50;;;;;;;10.12;46.22;103034.09;108154;1287;21995;-68
2023/02/09 10:13:48;;;;;;;12.60;7.40;;;;;;;10.06;45.69;103025.46;108123;1287;22188;-68
2023/02/09 10:16:26;;;;;;;13.90;7.90;;;;;;;10.09;46.84;103026.46;108325;1287;21986;-64
2023/02/09 10:18:57;;;;;;;13.80;7.40;;;;;;;10.33;47.67;103017.03;107470;1287;1003138;-67
2023/02/09 10:21:25;;;;;;;14.60;7.70;;;;;;;10.55;47.23;103014.91;108232;1287;21999;-63
2023/02/09 10:23:58;;;;;;;11.90;7.10;;;;;;;10.66;46.24;103012.43;108201;1287;21990;-68
2023/02/09 10:26:32;;;;;;;11.40;6.60;;;;;;;10.72;45.85;103005.38;108227;1287;21998;-68
2023/02/09 10:29:10;;;;;;;12.30;6.60;;;;;;;10.84;46.64;103003.28;108261;1287;23038;-62
2023/02/09 10:31:53;;;;;;;12.00;6.80;;;;;;;11.06;46.70;103000.39;108318;1287;22459;-68
2023/02/09 10:34:36;;;;;;;13.10;7.20;;;;;;;11.19;45.60;102994.92;108288;1287;21992;-63
2023/02/09 10:37:08;;;;;;;10.20;6.20;;;;;;;11.20;45.06;102995.31;108209;1287;22468;-62
2023/02/09 10:39:34;;;;;;;10.30;5.60;;;;;;;11.27;45.60;102994.26;108206;1287;22017;-67
2023/02/09 10:42:29;;;;;;;11.20;6.00;;;;;;;11.44;46.18;102990.84;108218;1287;21990;-63
2023/02/09 10:44:56;;;;;;;9.80;5.50;;;;;;;11.56;45.00;102986.56;108094;1283;21982;-62
2023/02/09 10:47:25;;;;;;;9.30;5.40;;;;;;;11.60;45.39;102984.21;108188;1287;21990;-67
2023/02/09 10:50:16;;;;;;;9.70;5.50;;;;;;;11.73;45.08;102979.61;108264;1279;22007;-67
2023/02/09 10:52:58;;;;;;;11.20;5.40;;;;;;;11.90;45.14;102974.21;108170;1287;23635;-63
2023/02/09 10:55:34;;;;;;;10.40;5.30;;;;;;;12.06;45.21;102970.91;107411;1287;1002376;-64
2023/02/09 10:58:11;;;;;;;9.10;5.30;;;;;;;12.22;46.12;102970.93;108217;1280;21999;-65
2023/02/09 11:00:41;;;;;;;8.30;4.90;;;;;;;12.44;46.11;102970.15;108267;1276;21985;-66
2023/02/09 11:03:19;;;;;;;8.10;4.90;;;;;;;12.61;46.06;102963.64;108236;1287;21995;-65
2023/02/09 11:05:48;;;;;;;8.00;4.20;;;;;;;12.72;45.66;102959.98;108146;1287;21991;-66
2023/02/09 11:08:21;;;;;;;8.40;4.40;;;;;;;12.84;45.89;102956.88;108104;1287;21987;-66
2023/02/09 11:11:00;;;;;;;7.40;4.00;;;;;;;12.97;46.04;102955.91;108124;1287;21998;-66
2023/02/09 11:13:26;;;;;;;6.80;4.20;;;;;;;13.12;45.24;102949.66;108137;1287;22024;-67
2023/02/09 11:16:04;;;;;;;8.00;4.60;;;;;;;13.24;45.64;102952.34;108101;1287;22452;-65
2023/02/09 11:18:32;;;;;;;9.30;4.60;;;;;;;13.41;45.72;102947.88;108029;1287;22904;-66
2023/02/09 11:21:06;;;;;;;7.50;4.40;;;;;;;13.52;45.45;102945.08;108128;1287;21987;-66